createdAt,value
2018-12-24T00:01:14.710Z,6.50
2018-12-24T00:03:44.079Z,5.72
2018-12-24T00:06:13.486Z,5.75
2018-12-24T00:08:42.906Z,5.55
2018-12-24T00:11:12.396Z,5.83
2018-12-24T00:13:41.865Z,6.12
2018-12-24T00:16:11.247Z,5.45
2018-12-24T00:18:40.819Z,5.28
2018-12-24T00:21:10.301Z,5.72
2018-12-24T00:23:39.845Z,5.25
2018-12-24T00:26:09.512Z,4.87
2018-12-24T00:28:38.888Z,4.87
2018-12-24T00:31:08.296Z,4.95
2018-12-24T00:33:37.724Z,5.15
2018-12-24T00:36:07.095Z,4.85
2018-12-24T00:38:36.565Z,4.53
2018-12-24T00:41:06.147Z,4.87
2018-12-24T00:43:35.698Z,4.33
2018-12-24T00:46:05.073Z,4.53
2018-12-24T00:48:34.465Z,4.97
2018-12-24T00:51:03.891Z,4.72
2018-12-24T00:53:33.489Z,4.60
2018-12-24T00:56:03.021Z,3.98
2018-12-24T00:58:32.491Z,4.20
2018-12-24T01:01:02.022Z,4.17
2018-12-24T01:03:31.499Z,4.37
2018-12-24T01:06:00.990Z,3.70
2018-12-24T01:08:30.396Z,3.92
2018-12-24T01:11:00.038Z,4.30
2018-12-24T01:13:29.532Z,4.45
2018-12-24T01:15:58.913Z,4.12
2018-12-24T01:18:28.367Z,4.10
2018-12-24T01:20:57.823Z,4.08
2018-12-24T01:23:27.178Z,4.22
2018-12-24T01:25:56.556Z,3.65
2018-12-24T01:28:25.963Z,3.95
2018-12-24T01:30:55.309Z,3.95
2018-12-24T01:33:24.656Z,3.67
2018-12-24T01:35:54.037Z,3.83
2018-12-24T01:38:23.391Z,3.98
2018-12-24T01:40:52.735Z,3.65
2018-12-24T01:43:22.099Z,3.95
2018-12-24T01:45:51.452Z,3.47
2018-12-24T01:48:20.858Z,3.15
2018-12-24T01:50:50.301Z,3.45
2018-12-24T01:53:19.680Z,5.65
2018-12-24T01:55:49.123Z,9.95
2018-12-24T01:58:18.724Z,13.83
2018-12-24T02:00:48.225Z,12.60
2018-12-24T02:03:17.938Z,11.25
2018-12-24T02:05:47.474Z,9.90
2018-12-24T02:08:17.110Z,10.45
2018-12-24T02:10:46.503Z,9.63
2018-12-24T02:13:15.955Z,14.85
2018-12-24T02:15:45.405Z,17.57
2018-12-24T02:18:14.813Z,13.72
2018-12-24T02:20:44.209Z,12.43
2018-12-24T02:23:13.549Z,12.80
2018-12-24T02:25:42.891Z,11.50
2018-12-24T02:28:12.345Z,11.68
2018-12-24T02:30:41.921Z,10.28
2018-12-24T02:33:11.443Z,9.70
2018-12-24T02:35:41.031Z,12.43
2018-12-24T02:38:10.440Z,16.45
2018-12-24T02:40:39.797Z,12.88
2018-12-24T02:43:09.251Z,11.60
2018-12-24T02:45:38.611Z,13.45
2018-12-24T02:48:08.062Z,22.20
2018-12-24T02:50:37.456Z,22.73
2018-12-24T02:53:07.010Z,22.00
2018-12-24T02:55:36.544Z,19.95
2018-12-24T02:58:06.278Z,18.95
2018-12-24T03:00:35.761Z,17.40
2018-12-24T03:03:05.413Z,15.58
2018-12-24T03:05:35.018Z,15.10
2018-12-24T03:08:04.507Z,14.07
2018-12-24T03:10:34.021Z,14.38
2018-12-24T03:13:03.574Z,12.75
2018-12-24T03:15:32.944Z,13.13
2018-12-24T03:18:02.311Z,11.88
2018-12-24T03:20:31.763Z,16.75
2018-12-24T03:23:01.237Z,14.20
2018-12-24T03:25:30.710Z,13.15
2018-12-24T03:28:00.232Z,12.45
2018-12-24T03:30:29.710Z,12.20
2018-12-24T03:32:59.089Z,11.38
2018-12-24T03:35:28.512Z,10.50
2018-12-24T03:37:57.869Z,9.45
2018-12-24T03:40:27.643Z,12.00
2018-12-24T03:42:57.191Z,17.07
2018-12-24T03:45:26.555Z,12.90
2018-12-24T03:47:55.974Z,10.85
2018-12-24T03:50:25.490Z,11.33
2018-12-24T03:52:54.836Z,10.78
2018-12-24T03:55:24.178Z,10.65
2018-12-24T03:57:53.650Z,10.20
2018-12-24T04:00:24.054Z,9.95
2018-12-24T04:02:53.413Z,9.18
2018-12-24T04:05:22.997Z,9.08
2018-12-24T04:07:52.464Z,9.00
2018-12-24T04:10:21.827Z,8.18
2018-12-24T04:12:51.205Z,8.35
2018-12-24T04:15:20.643Z,7.90
2018-12-24T04:17:50.014Z,8.08
2018-12-24T04:20:19.359Z,7.33
2018-12-24T04:22:48.730Z,6.83
2018-12-24T04:25:18.118Z,7.20
2018-12-24T04:27:47.555Z,6.97
2018-12-24T04:30:16.948Z,6.97
2018-12-24T04:32:46.510Z,7.10
2018-12-24T04:35:15.923Z,6.87
2018-12-24T04:37:45.467Z,5.90
2018-12-24T04:40:14.969Z,6.20
2018-12-24T04:42:44.365Z,5.80
2018-12-24T04:45:13.980Z,5.90
2018-12-24T04:47:43.341Z,5.78
2018-12-24T04:50:12.786Z,5.40
2018-12-24T04:52:42.312Z,5.03
2018-12-24T04:55:11.721Z,5.35
2018-12-24T04:57:41.149Z,5.15
2018-12-24T05:00:10.484Z,5.00
2018-12-24T05:02:39.962Z,5.97
2018-12-24T05:05:09.436Z,10.78
2018-12-24T05:07:38.825Z,15.13
2018-12-24T05:10:08.185Z,14.98
2018-12-24T05:12:37.671Z,12.37
2018-12-24T05:15:07.391Z,11.03
2018-12-24T05:17:36.734Z,9.88
2018-12-24T05:20:06.153Z,10.43
2018-12-24T05:22:35.587Z,9.25
2018-12-24T05:25:05.005Z,9.88
2018-12-24T05:27:34.369Z,10.28
2018-12-24T05:30:03.935Z,10.05
2018-12-24T05:32:33.336Z,9.18
2018-12-24T05:35:02.692Z,9.08
2018-12-24T05:37:32.147Z,9.05
2018-12-24T05:40:01.501Z,7.72
2018-12-24T05:42:30.827Z,7.03
2018-12-24T05:45:00.266Z,7.75
2018-12-24T05:47:29.698Z,6.90
2018-12-24T05:49:59.291Z,6.05
2018-12-24T05:52:28.704Z,5.97
2018-12-24T05:54:58.244Z,7.17
2018-12-24T05:57:27.588Z,6.62
2018-12-24T05:59:56.962Z,6.42
2018-12-24T06:02:26.474Z,6.00
2018-12-24T06:04:55.840Z,6.22
2018-12-24T06:07:25.226Z,5.40
2018-12-24T06:09:54.636Z,5.97
2018-12-24T06:12:23.977Z,5.00
2018-12-24T06:14:53.521Z,5.47
2018-12-24T06:17:23.015Z,5.47
2018-12-24T06:19:52.539Z,18.82
2018-12-24T06:22:21.897Z,21.85
2018-12-24T06:24:51.499Z,21.33
2018-12-24T06:27:20.973Z,18.87
2018-12-24T06:29:50.398Z,17.35
2018-12-24T06:32:19.797Z,15.98
2018-12-24T06:34:49.202Z,15.53
2018-12-24T06:37:18.563Z,15.30
2018-12-24T06:39:47.963Z,13.83
2018-12-24T06:42:18.444Z,12.88
2018-12-24T06:44:47.810Z,12.00
2018-12-24T06:47:17.329Z,11.88
2018-12-24T06:49:46.763Z,11.30
2018-12-24T06:52:16.125Z,10.85
2018-12-24T06:54:45.527Z,10.32
2018-12-24T06:57:14.920Z,9.90
2018-12-24T06:59:44.304Z,10.03
2018-12-24T07:02:13.890Z,9.38
2018-12-24T07:04:43.247Z,9.08
2018-12-24T07:07:12.948Z,8.63
2018-12-24T07:09:42.335Z,8.18
2018-12-24T07:12:11.731Z,7.97
2018-12-24T07:14:41.083Z,7.65
2018-12-24T07:17:10.905Z,7.62
2018-12-24T07:19:40.238Z,7.47
2018-12-24T07:22:09.618Z,7.47
2018-12-24T07:24:39.033Z,6.92
2018-12-24T07:27:08.373Z,7.03
2018-12-24T07:29:37.737Z,6.60
2018-12-24T07:32:07.126Z,6.62
2018-12-24T07:34:36.606Z,6.35
2018-12-24T07:37:06.114Z,6.35
2018-12-24T07:39:35.624Z,5.90
2018-12-24T07:42:05.247Z,6.28
2018-12-24T07:44:34.691Z,6.10
2018-12-24T07:47:04.201Z,6.03
2018-12-24T07:49:33.552Z,5.92
2018-12-24T07:52:02.933Z,6.03
2018-12-24T07:54:32.369Z,5.42
2018-12-24T07:57:01.757Z,5.40
2018-12-24T07:59:31.148Z,5.92
2018-12-24T08:02:00.730Z,5.37
2018-12-24T08:04:30.223Z,5.62
2018-12-24T08:06:59.797Z,5.35
2018-12-24T08:09:29.233Z,5.60
2018-12-24T08:11:58.697Z,4.92
2018-12-24T08:14:32.894Z,4.50
2018-12-24T08:16:59.612Z,5.80
2018-12-24T08:19:30.787Z,4.97
2018-12-24T08:22:00.323Z,5.47
2018-12-24T08:24:29.804Z,4.87
2018-12-24T08:26:59.299Z,5.10
2018-12-24T08:29:28.663Z,4.95
2018-12-24T08:31:58.182Z,4.90
2018-12-24T08:34:27.570Z,5.03
2018-12-24T08:36:57.183Z,4.75
2018-12-24T08:39:26.700Z,4.90
2018-12-24T08:41:56.154Z,5.37
2018-12-24T08:44:25.545Z,4.40
2018-12-24T08:46:55.311Z,4.92
2018-12-24T08:49:24.660Z,4.05
2018-12-24T08:51:54.074Z,4.65
2018-12-24T08:54:23.573Z,4.50
2018-12-24T08:56:52.983Z,4.10
2018-12-24T08:59:22.368Z,4.28
2018-12-24T09:01:51.794Z,4.70
2018-12-24T09:04:23.187Z,4.83
2018-12-24T09:06:52.582Z,4.40
2018-12-24T09:09:22.060Z,4.35
2018-12-24T09:11:51.518Z,8.15
2018-12-24T09:14:22.233Z,6.08
2018-12-24T09:16:51.795Z,6.45
2018-12-24T09:19:21.439Z,5.58
2018-12-24T09:21:51.006Z,6.17
2018-12-24T09:24:20.669Z,5.25
2018-12-24T09:26:50.086Z,5.37
2018-12-24T09:29:19.473Z,5.60
2018-12-24T09:31:48.941Z,4.92
2018-12-24T09:34:18.624Z,5.70
2018-12-24T09:36:48.107Z,4.97
2018-12-24T09:39:17.956Z,5.55
2018-12-24T09:41:47.452Z,5.17
2018-12-24T09:44:16.904Z,4.97
2018-12-24T09:46:46.391Z,5.12
2018-12-24T09:49:15.953Z,5.53
2018-12-24T09:51:45.390Z,5.30
2018-12-24T09:54:14.905Z,4.72
2018-12-24T09:56:44.400Z,4.78
2018-12-24T09:59:14.210Z,4.72
2018-12-24T10:01:43.941Z,4.50
2018-12-24T10:04:41.970Z,4.33
2018-12-24T10:07:40.564Z,4.80
2018-12-24T10:10:16.017Z,4.05
2018-12-24T10:12:45.531Z,4.33
2018-12-24T10:15:15.141Z,4.15
2018-12-24T10:17:44.926Z,4.58
2018-12-24T10:20:14.425Z,4.67
2018-12-24T10:22:43.933Z,4.40
2018-12-24T10:25:13.323Z,4.95
2018-12-24T10:27:43.120Z,5.70
2018-12-24T10:30:12.555Z,4.70
2018-12-24T10:32:42.110Z,4.33
2018-12-24T10:35:11.831Z,4.72
2018-12-24T10:37:41.321Z,4.37
2018-12-24T10:40:16.009Z,4.28
2018-12-24T10:42:44.212Z,4.62
2018-12-24T10:45:16.690Z,4.70
2018-12-24T10:47:44.732Z,4.60
2018-12-24T10:50:14.343Z,4.05
2018-12-24T10:52:46.103Z,4.12
2018-12-24T10:55:15.752Z,3.70
2018-12-24T10:57:45.187Z,3.92
2018-12-24T11:00:14.673Z,4.42
2018-12-24T11:02:44.096Z,4.45
2018-12-24T11:05:13.580Z,4.12
2018-12-24T11:07:43.188Z,4.47
2018-12-24T11:10:13.288Z,4.42
2018-12-24T11:12:42.655Z,4.37
2018-12-24T11:15:13.716Z,3.75
2018-12-24T11:17:43.236Z,4.17
2018-12-24T11:20:12.675Z,8.20
2018-12-24T11:22:42.052Z,15.25
2018-12-24T11:25:11.692Z,13.50
2018-12-24T11:27:41.286Z,12.20
2018-12-24T11:30:09.514Z,10.95
2018-12-24T11:32:39.046Z,10.55
2018-12-24T11:35:08.842Z,10.48
2018-12-24T11:37:38.328Z,10.90
2018-12-24T11:40:08.056Z,10.18
2018-12-24T11:42:37.607Z,9.93
2018-12-24T11:45:07.333Z,10.38
2018-12-24T11:47:36.876Z,20.32
2018-12-24T11:50:06.358Z,21.90
2018-12-24T11:52:35.831Z,17.10
2018-12-24T11:55:05.478Z,16.15
2018-12-24T11:57:34.833Z,14.18
2018-12-24T12:00:04.463Z,13.35
2018-12-24T12:02:34.093Z,12.70
2018-12-24T12:05:03.680Z,12.82
2018-12-24T12:07:33.390Z,12.43
2018-12-24T12:10:04.611Z,11.10
2018-12-24T12:12:34.082Z,11.90
2018-12-24T12:15:03.579Z,11.22
2018-12-24T12:17:33.074Z,40.85
2018-12-24T12:20:02.684Z,40.92
2018-12-24T12:22:32.311Z,38.58
2018-12-24T12:25:01.894Z,34.95
2018-12-24T12:27:31.441Z,32.83
2018-12-24T12:30:00.993Z,29.25
2018-12-24T12:32:30.455Z,27.93
2018-12-24T12:34:59.847Z,26.55
2018-12-24T12:37:29.317Z,24.63
2018-12-24T12:39:58.751Z,23.38
2018-12-24T12:42:28.128Z,21.93
2018-12-24T12:44:57.542Z,20.70
2018-12-24T12:47:27.084Z,19.90
2018-12-24T12:49:58.927Z,19.17
2018-12-24T12:52:28.389Z,18.35
2018-12-24T12:54:58.008Z,17.32
2018-12-24T12:57:27.529Z,21.97
2018-12-24T12:59:57.007Z,26.15
2018-12-24T13:02:26.587Z,24.92
2018-12-24T13:04:56.118Z,21.20
2018-12-24T13:07:25.628Z,20.27
2018-12-24T13:09:55.223Z,19.95
2018-12-24T13:12:24.617Z,17.92
2018-12-24T13:14:54.047Z,17.80
2018-12-24T13:17:23.652Z,16.25
2018-12-24T13:19:53.194Z,16.20
2018-12-24T13:22:23.070Z,14.23
2018-12-24T13:24:52.619Z,14.38
2018-12-24T13:27:22.086Z,20.30
2018-12-24T13:29:51.474Z,17.48
2018-12-24T13:32:21.059Z,15.65
2018-12-24T13:34:50.711Z,13.88
2018-12-24T13:37:20.221Z,14.47
2018-12-24T13:39:49.664Z,13.28
2018-12-24T13:42:19.114Z,23.00
2018-12-24T13:44:48.517Z,31.33
2018-12-24T13:47:18.088Z,33.08
2018-12-24T13:49:47.543Z,28.73
2018-12-24T13:52:16.942Z,25.92
2018-12-24T13:54:46.360Z,29.45
2018-12-24T13:57:15.753Z,31.20
2018-12-24T13:59:45.171Z,25.68
2018-12-24T14:02:16.553Z,24.40
2018-12-24T14:04:45.731Z,23.95
2018-12-24T14:07:16.324Z,21.12
2018-12-24T14:09:45.768Z,21.42
2018-12-24T14:12:15.287Z,19.67
2018-12-24T14:14:44.722Z,22.25
2018-12-24T14:17:14.144Z,28.00
2018-12-24T14:19:43.573Z,28.12
2018-12-24T14:22:12.962Z,41.63
2018-12-24T14:24:42.404Z,44.33
2018-12-24T14:27:11.795Z,35.90
2018-12-24T14:29:42.555Z,34.25
2018-12-24T14:32:11.977Z,32.90
2018-12-24T14:34:41.469Z,30.68
2018-12-24T14:37:10.974Z,28.00
2018-12-24T14:39:40.382Z,26.87
2018-12-24T14:42:09.879Z,25.88
2018-12-24T14:44:39.618Z,23.90
2018-12-24T14:47:09.101Z,22.50
2018-12-24T14:49:38.599Z,21.75
2018-12-24T14:52:08.003Z,20.02
2018-12-24T14:54:37.678Z,20.80
2018-12-24T14:57:07.077Z,19.12
2018-12-24T14:59:36.514Z,19.25
2018-12-24T15:02:05.908Z,17.05
2018-12-24T15:04:35.414Z,16.27
2018-12-24T15:07:04.935Z,16.23
2018-12-24T15:09:34.314Z,17.07
2018-12-24T15:12:03.976Z,27.37
2018-12-24T15:14:33.355Z,20.25
2018-12-24T15:17:02.872Z,33.63
2018-12-24T15:19:33.766Z,39.65
2018-12-24T15:22:03.262Z,36.98
2018-12-24T15:24:32.823Z,34.65
2018-12-24T15:27:02.747Z,32.13
2018-12-24T15:29:32.241Z,30.35
2018-12-24T15:32:01.675Z,28.77
2018-12-24T15:34:31.046Z,25.60
2018-12-24T15:37:00.460Z,25.00
2018-12-24T15:39:30.062Z,23.92
2018-12-24T15:41:59.831Z,22.67
2018-12-24T15:44:29.442Z,22.27
2018-12-24T15:46:58.895Z,20.57
2018-12-24T15:49:28.389Z,19.07
2018-12-24T15:51:57.907Z,18.52
2018-12-24T15:54:27.349Z,17.37
2018-12-24T15:56:56.873Z,17.27
2018-12-24T15:59:26.370Z,23.00
2018-12-24T16:01:56.177Z,37.58
2018-12-24T16:04:25.757Z,48.63
2018-12-24T16:06:55.336Z,60.92
2018-12-24T16:09:26.077Z,57.62
2018-12-24T16:11:55.517Z,54.48
2018-12-24T16:14:24.925Z,51.60
2018-12-24T16:16:54.361Z,66.82
2018-12-24T16:19:23.914Z,70.78
2018-12-24T16:21:53.375Z,63.30
2018-12-24T16:24:22.770Z,57.48
2018-12-24T16:26:52.350Z,51.45
2018-12-24T16:29:21.995Z,48.42
2018-12-24T16:31:51.481Z,44.77
2018-12-24T16:34:20.951Z,41.77
2018-12-24T16:36:50.366Z,39.83
2018-12-24T16:39:19.898Z,38.95
2018-12-24T16:41:49.384Z,37.08
2018-12-24T16:44:18.766Z,34.40
2018-12-24T16:46:48.183Z,33.13
2018-12-24T16:49:17.748Z,30.82
2018-12-24T16:51:47.234Z,29.82
2018-12-24T16:54:16.611Z,28.38
2018-12-24T16:56:46.058Z,46.80
2018-12-24T16:59:15.549Z,54.20
2018-12-24T17:01:45.183Z,49.83
2018-12-24T17:04:14.675Z,44.15
2018-12-24T17:06:44.120Z,40.25
2018-12-24T17:09:13.671Z,38.42
2018-12-24T17:11:43.183Z,35.30
2018-12-24T17:14:12.624Z,32.23
2018-12-24T17:16:42.364Z,31.68
2018-12-24T17:19:11.823Z,30.60
2018-12-24T17:21:41.306Z,30.08
2018-12-24T17:24:10.856Z,27.45
2018-12-24T17:26:40.616Z,27.62
2018-12-24T17:29:10.021Z,25.75
2018-12-24T17:31:39.460Z,23.85
2018-12-24T17:34:09.042Z,23.77
2018-12-24T17:36:38.657Z,22.93
2018-12-24T17:39:09.529Z,20.95
2018-12-24T17:41:40.245Z,24.60
2018-12-24T17:44:09.928Z,29.80
2018-12-24T17:46:39.587Z,30.57
2018-12-24T17:49:09.076Z,28.32
2018-12-24T17:51:38.538Z,27.73
2018-12-24T17:54:08.186Z,25.37
2018-12-24T17:56:37.658Z,25.05
2018-12-24T17:59:07.273Z,23.75
2018-12-24T18:01:36.776Z,23.73
2018-12-24T18:04:06.386Z,22.35
2018-12-24T18:06:36.092Z,21.50
2018-12-24T18:09:08.087Z,21.52
2018-12-24T18:11:38.807Z,20.55
2018-12-24T18:14:08.226Z,20.23
2018-12-24T18:16:37.888Z,27.62
2018-12-24T18:19:07.331Z,23.18
2018-12-24T18:21:36.726Z,21.17
2018-12-24T18:24:06.186Z,21.07
2018-12-24T18:26:35.642Z,18.80
2018-12-24T18:29:05.125Z,18.92
2018-12-24T18:31:34.730Z,18.02
2018-12-24T18:34:04.131Z,16.87
2018-12-24T18:36:33.870Z,17.50
2018-12-24T18:39:04.576Z,15.45
2018-12-24T18:41:36.190Z,16.07
2018-12-24T18:44:06.420Z,14.63
2018-12-24T18:46:35.850Z,15.28
2018-12-24T18:49:05.283Z,19.15
2018-12-24T18:51:35.057Z,23.32
2018-12-24T18:54:04.678Z,20.72
2018-12-24T18:56:34.237Z,19.00
2018-12-24T18:59:03.729Z,17.52
2018-12-24T19:01:33.123Z,17.50
2018-12-24T19:04:02.786Z,17.32
2018-12-24T19:06:32.402Z,14.98
2018-12-24T19:09:01.916Z,14.83
2018-12-24T19:11:31.553Z,14.95
2018-12-24T19:14:01.358Z,13.43
2018-12-24T19:16:30.918Z,14.05
2018-12-24T19:19:00.588Z,12.73
2018-12-24T19:21:30.098Z,13.45
2018-12-24T19:23:59.629Z,14.40
2018-12-24T19:26:29.115Z,23.70
2018-12-24T19:28:58.610Z,17.30
2018-12-24T19:31:29.215Z,17.32
2018-12-24T19:33:58.860Z,15.98
2018-12-24T19:36:28.387Z,14.65
2018-12-24T19:38:57.947Z,14.75
2018-12-24T19:41:27.471Z,14.25
2018-12-24T19:43:56.978Z,12.68
2018-12-24T19:46:26.478Z,11.55
2018-12-24T19:48:56.046Z,12.18
2018-12-24T19:51:25.499Z,18.05
2018-12-24T19:53:55.067Z,15.30
2018-12-24T19:56:24.488Z,14.65
2018-12-24T19:58:53.912Z,13.90
2018-12-24T20:01:23.521Z,12.95
2018-12-24T20:03:52.950Z,14.45
2018-12-24T20:06:22.546Z,34.30
2018-12-24T20:08:52.120Z,34.67
2018-12-24T20:11:21.837Z,59.98
2018-12-24T20:13:51.516Z,43.75
2018-12-24T20:16:21.076Z,38.00
2018-12-24T20:18:50.485Z,35.35
2018-12-24T20:21:19.901Z,32.35
2018-12-24T20:23:49.337Z,29.92
2018-12-24T20:26:18.907Z,30.70
2018-12-24T20:28:48.423Z,26.93
2018-12-24T20:31:18.013Z,27.13
2018-12-24T20:33:47.708Z,25.12
2018-12-24T20:36:17.120Z,24.00
2018-12-24T20:38:46.575Z,21.45
2018-12-24T20:41:16.039Z,21.93
2018-12-24T20:43:45.589Z,19.52
2018-12-24T20:46:14.995Z,20.88
2018-12-24T20:48:44.495Z,18.60
2018-12-24T20:51:16.283Z,18.73
2018-12-24T20:53:45.210Z,18.52
2018-12-24T20:56:14.658Z,17.57
2018-12-24T20:58:44.215Z,17.10
2018-12-24T21:01:13.713Z,15.95
2018-12-24T21:03:43.220Z,14.90
2018-12-24T21:06:13.471Z,14.47
2018-12-24T21:08:43.161Z,21.77
2018-12-24T21:11:12.817Z,27.50
2018-12-24T21:13:42.317Z,36.40
2018-12-24T21:16:11.989Z,36.85
2018-12-24T21:18:41.703Z,32.80
2018-12-24T21:21:11.264Z,31.02
2018-12-24T21:23:40.726Z,27.62
2018-12-24T21:26:10.149Z,27.17
2018-12-24T21:28:39.666Z,25.68
2018-12-24T21:31:09.218Z,23.05
2018-12-24T21:33:38.635Z,22.65
2018-12-24T21:36:08.089Z,21.27
2018-12-24T21:38:37.679Z,20.85
2018-12-24T21:41:07.140Z,19.50
2018-12-24T21:43:36.567Z,19.27
2018-12-24T21:46:06.069Z,18.37
2018-12-24T21:48:35.484Z,17.80
2018-12-24T21:51:05.076Z,16.82
2018-12-24T21:53:34.627Z,15.85
2018-12-24T21:56:04.246Z,15.72
2018-12-24T21:58:33.855Z,15.20
2018-12-24T22:01:03.337Z,14.68
2018-12-24T22:03:32.759Z,13.43
2018-12-24T22:06:02.468Z,13.43
2018-12-24T22:08:31.981Z,12.40
2018-12-24T22:11:01.557Z,20.92
2018-12-24T22:13:31.151Z,18.35
2018-12-24T22:16:02.321Z,43.85
2018-12-24T22:18:32.366Z,42.67
2018-12-24T22:21:02.218Z,39.38
2018-12-24T22:23:31.774Z,38.05
2018-12-24T22:26:01.373Z,36.58
2018-12-24T22:28:30.811Z,34.13
2018-12-24T22:31:00.299Z,31.37
2018-12-24T22:33:29.738Z,28.32
2018-12-24T22:35:59.247Z,26.27
2018-12-24T22:38:28.733Z,24.70
2018-12-24T22:40:58.445Z,25.20
2018-12-24T22:43:27.933Z,23.25
2018-12-24T22:45:57.470Z,21.85
2018-12-24T22:48:26.877Z,20.70
2018-12-24T22:50:56.463Z,19.75
2018-12-24T22:53:28.254Z,19.70
2018-12-24T22:55:57.819Z,18.62
2018-12-24T22:58:27.303Z,18.10
2018-12-24T23:00:57.159Z,17.40
2018-12-24T23:03:26.793Z,15.85
2018-12-24T23:05:56.618Z,15.50
2018-12-24T23:08:26.195Z,14.40
2018-12-24T23:10:55.844Z,14.35
2018-12-24T23:13:25.686Z,14.93
2018-12-24T23:15:55.145Z,13.35
2018-12-24T23:18:24.702Z,13.18
2018-12-24T23:20:54.326Z,12.45
2018-12-24T23:23:23.873Z,12.60
2018-12-24T23:25:53.467Z,11.97
2018-12-24T23:28:23.144Z,13.15
2018-12-24T23:30:52.892Z,12.45
2018-12-24T23:33:22.562Z,11.12
2018-12-24T23:35:52.135Z,11.00
2018-12-24T23:38:21.713Z,11.38
2018-12-24T23:40:51.107Z,10.93
2018-12-24T23:43:20.795Z,9.40
2018-12-24T23:45:50.183Z,9.60
2018-12-24T23:48:19.738Z,9.83
2018-12-24T23:50:49.224Z,10.15
2018-12-24T23:53:18.783Z,9.20
2018-12-24T23:55:48.259Z,9.68
2018-12-24T23:58:17.997Z,8.68
